sensor_id;sensor_type;location;lat;lon;timestamp;pressure;altitude;pressure_sealevel;temperature;humidity
54122;BME280;40029;58.708;50.190;2022-08-19T00:01:56;101658.22;;;12.23;48.37
54122;BME280;40029;58.708;50.190;2022-08-19T00:04:32;101678.31;;;12.20;48.78
54122;BME280;40029;58.708;50.190;2022-08-19T00:07:05;101672.28;;;12.13;49.04
54122;BME280;40029;58.708;50.190;2022-08-19T00:09:52;101673.25;;;12.06;49.16
54122;BME280;40029;58.708;50.190;2022-08-19T00:12:23;101676.75;;;12.05;48.90
54122;BME280;40029;58.708;50.190;2022-08-19T00:14:54;101672.47;;;12.03;48.97
54122;BME280;40029;58.708;50.190;2022-08-19T00:17:25;101669.91;;;11.98;48.67
54122;BME280;40029;58.708;50.190;2022-08-19T00:19:56;101679.44;;;12.00;49.39
54122;BME280;40029;58.708;50.190;2022-08-19T00:22:27;101685.53;;;12.01;49.33
54122;BME280;40029;58.708;50.190;2022-08-19T00:24:59;101682.00;;;12.02;48.86
54122;BME280;40029;58.708;50.190;2022-08-19T00:27:29;101682.91;;;12.03;49.06
54122;BME280;40029;58.708;50.190;2022-08-19T00:30:01;101685.50;;;12.04;49.55
54122;BME280;40029;58.708;50.190;2022-08-19T00:32:34;101688.91;;;12.09;48.75
54122;BME280;40029;58.708;50.190;2022-08-19T00:35:06;101650.88;;;11.88;49.34
54122;BME280;40029;58.708;50.190;2022-08-19T00:37:38;101690.63;;;12.10;49.23
54122;BME280;40029;58.708;50.190;2022-08-19T00:40:11;101691.56;;;12.05;49.34
54122;BME280;40029;58.708;50.190;2022-08-19T00:42:42;101693.31;;;12.04;49.50
54122;BME280;40029;58.708;50.190;2022-08-19T00:45:18;101695.97;;;12.01;50.05
54122;BME280;40029;58.708;50.190;2022-08-19T00:48:09;101704.69;;;12.00;49.65
54122;BME280;40029;58.708;50.190;2022-08-19T00:50:41;101703.84;;;11.99;49.76
54122;BME280;40029;58.708;50.190;2022-08-19T00:53:16;101706.41;;;12.01;49.92
54122;BME280;40029;58.708;50.190;2022-08-19T00:55:51;101705.59;;;11.97;50.36
54122;BME280;40029;58.708;50.190;2022-08-19T00:58:29;101701.28;;;11.95;50.37
54122;BME280;40029;58.708;50.190;2022-08-19T01:01:02;101701.34;;;11.89;50.23
54122;BME280;40029;58.708;50.190;2022-08-19T01:03:33;101717.03;;;11.89;50.53
54122;BME280;40029;58.708;50.190;2022-08-19T01:06:04;101723.16;;;11.86;50.07
54122;BME280;40029;58.708;50.190;2022-08-19T01:08:36;101723.16;;;11.86;50.72
54122;BME280;40029;58.708;50.190;2022-08-19T01:11:07;101725.81;;;11.80;50.10
54122;BME280;40029;58.708;50.190;2022-08-19T01:13:41;101729.34;;;11.74;50.75
54122;BME280;40029;58.708;50.190;2022-08-19T01:16:12;101727.59;;;11.78;51.33
54122;BME280;40029;58.708;50.190;2022-08-19T01:18:44;101737.19;;;11.74;51.18
54122;BME280;40029;58.708;50.190;2022-08-19T01:21:35;101740.59;;;11.80;50.71
54122;BME280;40029;58.708;50.190;2022-08-19T01:24:08;101743.34;;;11.70;51.80
54122;BME280;40029;58.708;50.190;2022-08-19T01:26:41;101747.66;;;11.73;51.12
54122;BME280;40029;58.708;50.190;2022-08-19T01:29:13;101730.41;;;11.60;51.05
54122;BME280;40029;58.708;50.190;2022-08-19T01:31:44;101751.25;;;11.63;50.46
54122;BME280;40029;58.708;50.190;2022-08-19T01:34:15;101746.06;;;11.60;50.88
54122;BME280;40029;58.708;50.190;2022-08-19T01:36:47;101749.59;;;11.56;50.11
54122;BME280;40029;58.708;50.190;2022-08-19T01:39:24;101753.06;;;11.55;49.90
54122;BME280;40029;58.708;50.190;2022-08-19T01:41:55;101752.28;;;11.48;49.44
54122;BME280;40029;58.708;50.190;2022-08-19T01:44:26;101746.16;;;11.49;49.92
54122;BME280;40029;58.708;50.190;2022-08-19T01:46:57;101744.41;;;11.49;49.95
54122;BME280;40029;58.708;50.190;2022-08-19T01:49:29;101753.97;;;11.52;49.90
54122;BME280;40029;58.708;50.190;2022-08-19T01:52:01;101731.38;;;11.46;49.87
54122;BME280;40029;58.708;50.190;2022-08-19T01:54:32;101745.16;;;11.62;49.72
54122;BME280;40029;58.708;50.190;2022-08-19T01:57:07;101754.63;;;11.71;50.15
54122;BME280;40029;58.708;50.190;2022-08-19T01:59:41;101750.25;;;11.74;49.62
54122;BME280;40029;58.708;50.190;2022-08-19T02:02:13;101753.66;;;11.81;49.79
54122;BME280;40029;58.708;50.190;2022-08-19T02:04:44;101755.41;;;11.84;49.30
54122;BME280;40029;58.708;50.190;2022-08-19T02:07:19;101750.91;;;11.96;49.79
54122;BME280;40029;58.708;50.190;2022-08-19T02:09:52;101756.06;;;12.01;49.81
54122;BME280;40029;58.708;50.190;2022-08-19T02:12:23;101752.47;;;12.10;49.54
54122;BME280;40029;58.708;50.190;2022-08-19T02:14:54;101747.13;;;12.20;49.27
54122;BME280;40029;58.708;50.190;2022-08-19T02:17:25;101751.28;;;12.34;48.84
54122;BME280;40029;58.708;50.190;2022-08-19T02:19:56;101747.66;;;12.44;49.57
54122;BME280;40029;58.708;50.190;2022-08-19T02:22:27;101741.53;;;12.46;49.06
54122;BME280;40029;58.708;50.190;2022-08-19T02:24:58;101756.09;;;12.66;49.44
54122;BME280;40029;58.708;50.190;2022-08-19T02:27:29;101757.69;;;12.74;49.46
54122;BME280;40029;58.708;50.190;2022-08-19T02:30:03;101771.50;;;12.83;49.19
54122;BME280;40029;58.708;50.190;2022-08-19T02:32:34;101768.69;;;12.95;49.25
54122;BME280;40029;58.708;50.190;2022-08-19T02:35:06;101772.94;;;13.02;49.04
54122;BME280;40029;58.708;50.190;2022-08-19T02:37:37;101776.34;;;13.07;49.39
54122;BME280;40029;58.708;50.190;2022-08-19T02:40:27;101777.03;;;13.18;49.23
54122;BME280;40029;58.708;50.190;2022-08-19T02:42:59;101782.16;;;13.28;49.27
54122;BME280;40029;58.708;50.190;2022-08-19T02:45:34;101780.19;;;13.40;49.90
54122;BME280;40029;58.708;50.190;2022-08-19T02:48:06;101777.47;;;13.45;49.22
54122;BME280;40029;58.708;50.190;2022-08-19T02:50:39;101784.31;;;13.55;49.52
54122;BME280;40029;58.708;50.190;2022-08-19T02:53:10;101776.44;;;13.54;49.19
54122;BME280;40029;58.708;50.190;2022-08-19T02:55:48;101787.38;;;13.77;48.83
54122;BME280;40029;58.708;50.190;2022-08-19T02:58:21;101792.31;;;13.92;48.36
54122;BME280;40029;58.708;50.190;2022-08-19T03:00:54;101786.81;;;14.05;48.18
54122;BME280;40029;58.708;50.190;2022-08-19T03:03:26;101792.75;;;14.14;47.69
54122;BME280;40029;58.708;50.190;2022-08-19T03:06:14;101790.63;;;14.33;47.13
54122;BME280;40029;58.708;50.190;2022-08-19T03:08:46;101790.50;;;14.38;46.93
54122;BME280;40029;58.708;50.190;2022-08-19T03:11:23;101803.47;;;14.45;46.55
54122;BME280;40029;58.708;50.190;2022-08-19T03:13:56;101798.25;;;14.44;46.30
54122;BME280;40029;58.708;50.190;2022-08-19T03:16:29;101813.09;;;14.45;46.81
54122;BME280;40029;58.708;50.190;2022-08-19T03:19:02;101818.28;;;14.49;45.98
54122;BME280;40029;58.708;50.190;2022-08-19T03:21:34;101817.16;;;14.61;45.56
54122;BME280;40029;58.708;50.190;2022-08-19T03:24:07;101815.19;;;14.71;45.18
54122;BME280;40029;58.708;50.190;2022-08-19T03:26:48;101817.69;;;14.75;45.39
54122;BME280;40029;58.708;50.190;2022-08-19T03:29:20;101816.94;;;14.70;45.26
54122;BME280;40029;58.708;50.190;2022-08-19T03:31:51;101834.94;;;14.86;45.11
54122;BME280;40029;58.708;50.190;2022-08-19T03:34:27;101831.22;;;14.96;45.13
54122;BME280;40029;58.708;50.190;2022-08-19T03:37:04;101830.16;;;15.05;44.88
54122;BME280;40029;58.708;50.190;2022-08-19T03:39:37;101840.44;;;15.14;44.99
54122;BME280;40029;58.708;50.190;2022-08-19T03:42:10;101834.16;;;15.21;44.86
54122;BME280;40029;58.708;50.190;2022-08-19T03:44:41;101838.16;;;15.36;44.62
54122;BME280;40029;58.708;50.190;2022-08-19T03:47:12;101839.63;;;15.46;44.69
54122;BME280;40029;58.708;50.190;2022-08-19T03:49:47;101822.81;;;15.53;43.82
54122;BME280;40029;58.708;50.190;2022-08-19T03:52:18;101828.69;;;15.64;43.51
54122;BME280;40029;58.708;50.190;2022-08-19T03:54:49;101836.00;;;15.86;42.88
54122;BME280;40029;58.708;50.190;2022-08-19T03:57:19;101773.50;;;15.63;43.47
54122;BME280;40029;58.708;50.190;2022-08-19T03:59:51;101838.66;;;16.17;42.60
54122;BME280;40029;58.708;50.190;2022-08-19T04:02:22;101845.06;;;16.38;42.45
54122;BME280;40029;58.708;50.190;2022-08-19T04:04:53;101833.34;;;16.49;42.13
54122;BME280;40029;58.708;50.190;2022-08-19T04:07:25;101849.28;;;16.74;41.36
54122;BME280;40029;58.708;50.190;2022-08-19T04:09:56;101853.19;;;16.89;41.08
54122;BME280;40029;58.708;50.190;2022-08-19T04:12:28;101858.03;;;17.03;40.74
54122;BME280;40029;58.708;50.190;2022-08-19T04:14:59;101857.56;;;17.18;40.65
54122;BME280;40029;58.708;50.190;2022-08-19T04:17:31;101854.44;;;17.34;40.01
54122;BME280;40029;58.708;50.190;2022-08-19T04:20:02;101854.91;;;17.45;39.31
54122;BME280;40029;58.708;50.190;2022-08-19T04:22:34;101866.84;;;17.57;38.72
54122;BME280;40029;58.708;50.190;2022-08-19T04:25:05;101865.66;;;17.65;37.81
54122;BME280;40029;58.708;50.190;2022-08-19T04:27:36;101874.09;;;17.77;37.59
54122;BME280;40029;58.708;50.190;2022-08-19T04:30:08;101869.53;;;17.82;36.94
54122;BME280;40029;58.708;50.190;2022-08-19T04:32:39;101887.34;;;18.00;36.92
54122;BME280;40029;58.708;50.190;2022-08-19T04:35:10;101874.63;;;18.11;35.99
54122;BME280;40029;58.708;50.190;2022-08-19T04:37:41;101808.72;;;17.86;35.58
54122;BME280;40029;58.708;50.190;2022-08-19T04:40:12;101870.47;;;18.29;34.90
54122;BME280;40029;58.708;50.190;2022-08-19T04:43:02;101870.66;;;18.48;35.02
54122;BME280;40029;58.708;50.190;2022-08-19T04:45:33;101809.16;;;18.22;34.57
54122;BME280;40029;58.708;50.190;2022-08-19T04:48:04;101865.47;;;18.68;34.40
54122;BME280;40029;58.708;50.190;2022-08-19T04:50:35;101867.47;;;18.85;33.78
54122;BME280;40029;58.708;50.190;2022-08-19T04:53:07;101858.59;;;18.88;33.17
54122;BME280;40029;58.708;50.190;2022-08-19T04:55:40;101878.03;;;19.09;32.39
54122;BME280;40029;58.708;50.190;2022-08-19T04:58:11;101877.66;;;19.18;32.13
54122;BME280;40029;58.708;50.190;2022-08-19T05:00:42;101885.00;;;19.32;31.70
54122;BME280;40029;58.708;50.190;2022-08-19T05:03:14;101870.75;;;19.36;31.16
54122;BME280;40029;58.708;50.190;2022-08-19T05:05:48;101892.06;;;19.53;30.76
54122;BME280;40029;58.708;50.190;2022-08-19T05:08:20;101889.88;;;19.64;30.96
54122;BME280;40029;58.708;50.190;2022-08-19T05:10:52;101888.94;;;19.65;30.64
54122;BME280;40029;58.708;50.190;2022-08-19T05:13:23;101890.97;;;19.79;30.49
54122;BME280;40029;58.708;50.190;2022-08-19T05:15:59;101896.47;;;19.95;30.52
54122;BME280;40029;58.708;50.190;2022-08-19T05:18:30;101900.84;;;19.96;29.76
54122;BME280;40029;58.708;50.190;2022-08-19T05:21:20;101895.97;;;20.07;29.53
54122;BME280;40029;58.708;50.190;2022-08-19T05:24:10;101898.16;;;20.18;29.17
54122;BME280;40029;58.708;50.190;2022-08-19T05:26:44;101889.84;;;20.26;29.09
54122;BME280;40029;58.708;50.190;2022-08-19T05:29:20;101899.88;;;20.38;29.14
54122;BME280;40029;58.708;50.190;2022-08-19T05:31:53;101885.00;;;20.35;29.00
54122;BME280;40029;58.708;50.190;2022-08-19T05:34:25;101905.59;;;20.49;28.93
54122;BME280;40029;58.708;50.190;2022-08-19T05:36:58;101910.38;;;20.60;28.74
54122;BME280;40029;58.708;50.190;2022-08-19T05:39:32;101907.38;;;20.67;28.69
54122;BME280;40029;58.708;50.190;2022-08-19T05:42:09;101913.19;;;20.76;28.39
54122;BME280;40029;58.708;50.190;2022-08-19T05:44:42;101912.03;;;20.81;28.09
54122;BME280;40029;58.708;50.190;2022-08-19T05:47:18;101907.25;;;20.89;27.95
54122;BME280;40029;58.708;50.190;2022-08-19T05:49:50;101896.50;;;20.92;27.84
54122;BME280;40029;58.708;50.190;2022-08-19T05:52:21;101909.09;;;21.06;27.41
54122;BME280;40029;58.708;50.190;2022-08-19T05:54:53;101917.53;;;21.14;27.22
54122;BME280;40029;58.708;50.190;2022-08-19T05:57:27;101893.75;;;21.13;26.93
54122;BME280;40029;58.708;50.190;2022-08-19T05:59:59;101904.78;;;21.22;26.55
54122;BME280;40029;58.708;50.190;2022-08-19T06:02:42;101906.88;;;21.35;26.26
54122;BME280;40029;58.708;50.190;2022-08-19T06:05:13;101913.66;;;21.40;25.76
54122;BME280;40029;58.708;50.190;2022-08-19T06:07:44;101902.91;;;21.43;25.90
54122;BME280;40029;58.708;50.190;2022-08-19T06:10:15;101905.09;;;21.53;26.09
54122;BME280;40029;58.708;50.190;2022-08-19T06:12:47;101904.72;;;21.60;26.13
54122;BME280;40029;58.708;50.190;2022-08-19T06:15:18;101919.22;;;21.70;25.38
54122;BME280;40029;58.708;50.190;2022-08-19T06:17:49;101914.38;;;21.79;25.12
54122;BME280;40029;58.708;50.190;2022-08-19T06:20:20;101919.06;;;21.91;24.51
54122;BME280;40029;58.708;50.190;2022-08-19T06:22:51;101914.31;;;21.98;24.28
54122;BME280;40029;58.708;50.190;2022-08-19T06:25:22;101915.63;;;22.06;23.81
54122;BME280;40029;58.708;50.190;2022-08-19T06:27:53;101897.16;;;22.05;23.97
54122;BME280;40029;58.708;50.190;2022-08-19T06:30:24;101912.19;;;22.21;23.61
54122;BME280;40029;58.708;50.190;2022-08-19T06:32:55;101890.19;;;22.19;23.52
54122;BME280;40029;58.708;50.190;2022-08-19T06:35:26;101913.66;;;22.44;23.70
54122;BME280;40029;58.708;50.190;2022-08-19T06:37:59;101914.34;;;22.48;23.25
54122;BME280;40029;58.708;50.190;2022-08-19T06:40:30;101911.28;;;22.56;23.24
54122;BME280;40029;58.708;50.190;2022-08-19T06:43:01;101905.63;;;22.62;22.97
54122;BME280;40029;58.708;50.190;2022-08-19T06:45:33;101901.84;;;22.66;22.71
54122;BME280;40029;58.708;50.190;2022-08-19T06:48:05;101905.81;;;22.75;21.80
54122;BME280;40029;58.708;50.190;2022-08-19T06:50:36;101911.22;;;22.73;22.15
54122;BME280;40029;58.708;50.190;2022-08-19T06:53:07;101916.94;;;22.65;22.15
54122;BME280;40029;58.708;50.190;2022-08-19T06:55:38;101913.78;;;22.75;21.64
54122;BME280;40029;58.708;50.190;2022-08-19T06:58:09;101916.72;;;22.86;21.50
54122;BME280;40029;58.708;50.190;2022-08-19T07:00:40;101916.72;;;22.86;21.52
54122;BME280;40029;58.708;50.190;2022-08-19T07:03:11;101912.72;;;22.94;21.12
54122;BME280;40029;58.708;50.190;2022-08-19T07:05:43;101913.63;;;22.93;20.63
54122;BME280;40029;58.708;50.190;2022-08-19T07:08:14;101906.19;;;23.00;20.73
54122;BME280;40029;58.708;50.190;2022-08-19T07:10:45;101914.59;;;23.08;20.41
54122;BME280;40029;58.708;50.190;2022-08-19T07:13:17;101923.00;;;23.16;20.08
54122;BME280;40029;58.708;50.190;2022-08-19T07:15:49;101925.22;;;23.24;20.24
54122;BME280;40029;58.708;50.190;2022-08-19T07:18:20;101926.50;;;23.33;19.88
54122;BME280;40029;58.708;50.190;2022-08-19T07:21:08;101924.47;;;23.52;19.13
54122;BME280;40029;58.708;50.190;2022-08-19T07:23:41;101926.00;;;23.56;19.13
54122;BME280;40029;58.708;50.190;2022-08-19T07:26:22;101917.00;;;23.59;18.91
54122;BME280;40029;58.708;50.190;2022-08-19T07:28:55;101923.63;;;23.67;18.94
54122;BME280;40029;58.708;50.190;2022-08-19T07:31:27;101930.66;;;23.68;19.21
54122;BME280;40029;58.708;50.190;2022-08-19T07:33:58;101922.50;;;23.72;18.98
54122;BME280;40029;58.708;50.190;2022-08-19T07:36:29;101928.41;;;23.77;18.32
54122;BME280;40029;58.708;50.190;2022-08-19T07:39:06;101909.03;;;23.75;18.34
54122;BME280;40029;58.708;50.190;2022-08-19T07:41:38;101923.81;;;23.79;18.38
54122;BME280;40029;58.708;50.190;2022-08-19T07:44:10;101925.38;;;23.83;18.53
54122;BME280;40029;58.708;50.190;2022-08-19T07:46:45;101925.88;;;23.89;18.15
54122;BME280;40029;58.708;50.190;2022-08-19T07:49:17;101926.81;;;23.88;17.93
54122;BME280;40029;58.708;50.190;2022-08-19T07:51:54;101917.03;;;23.89;17.75
54122;BME280;40029;58.708;50.190;2022-08-19T07:54:25;101934.38;;;24.25;18.02
54122;BME280;40029;58.708;50.190;2022-08-19T07:56:57;101922.59;;;24.14;17.32
54122;BME280;40029;58.708;50.190;2022-08-19T07:59:29;101923.16;;;24.19;16.73
54122;BME280;40029;58.708;50.190;2022-08-19T08:02:00;101922.47;;;24.16;16.80
54122;BME280;40029;58.708;50.190;2022-08-19T08:04:32;101932.50;;;24.27;17.32
54122;BME280;40029;58.708;50.190;2022-08-19T08:07:22;101933.63;;;24.37;16.93
54122;BME280;40029;58.708;50.190;2022-08-19T08:10:11;101936.91;;;24.42;17.01
54122;BME280;40029;58.708;50.190;2022-08-19T08:12:42;101933.03;;;24.48;16.89
54122;BME280;40029;58.708;50.190;2022-08-19T08:15:15;101931.38;;;24.45;16.17
54122;BME280;40029;58.708;50.190;2022-08-19T08:17:49;101936.25;;;24.53;16.58
54122;BME280;40029;58.708;50.190;2022-08-19T08:20:20;101929.13;;;24.39;16.11
54122;BME280;40029;58.708;50.190;2022-08-19T08:22:51;101929.41;;;24.49;15.99
54122;BME280;40029;58.708;50.190;2022-08-19T08:25:55;101938.63;;;24.57;15.58
54122;BME280;40029;58.708;50.190;2022-08-19T08:28:26;101930.63;;;24.57;15.41
54122;BME280;40029;58.708;50.190;2022-08-19T08:30:58;101921.41;;;24.49;15.19
54122;BME280;40029;58.708;50.190;2022-08-19T08:33:29;101928.53;;;24.62;15.07
54122;BME280;40029;58.708;50.190;2022-08-19T08:36:04;101920.16;;;24.68;15.15
54122;BME280;40029;58.708;50.190;2022-08-19T08:38:36;101928.91;;;24.71;14.90
54122;BME280;40029;58.708;50.190;2022-08-19T08:43:56;101917.66;;;24.80;15.52
54122;BME280;40029;58.708;50.190;2022-08-19T08:46:47;101916.97;;;24.90;15.69
54122;BME280;40029;58.708;50.190;2022-08-19T08:52:17;101918.16;;;25.13;15.56
54122;BME280;40029;58.708;50.190;2022-08-19T08:54:55;101922.91;;;25.23;15.74
54122;BME280;40029;58.708;50.190;2022-08-19T09:00:12;101929.38;;;25.33;14.55
54122;BME280;40029;58.708;50.190;2022-08-19T09:02:45;101901.44;;;25.11;15.04
54122;BME280;40029;58.708;50.190;2022-08-19T09:05:18;101933.53;;;25.37;15.13
54122;BME280;40029;58.708;50.190;2022-08-19T09:07:59;101922.22;;;25.33;15.00
54122;BME280;40029;58.708;50.190;2022-08-19T09:10:42;101928.56;;;25.45;14.49
54122;BME280;40029;58.708;50.190;2022-08-19T09:16:03;101928.13;;;25.51;14.02
54122;BME280;40029;58.708;50.190;2022-08-19T09:21:12;101926.25;;;25.53;14.39
54122;BME280;40029;58.708;50.190;2022-08-19T09:23:44;101924.31;;;25.55;14.27
54122;BME280;40029;58.708;50.190;2022-08-19T09:26:17;101917.50;;;25.64;14.44
54122;BME280;40029;58.708;50.190;2022-08-19T09:28:51;101915.38;;;25.69;14.32
54122;BME280;40029;58.708;50.190;2022-08-19T09:31:28;101920.22;;;25.77;14.37
54122;BME280;40029;58.708;50.190;2022-08-19T09:34:00;101912.59;;;25.71;14.42
54122;BME280;40029;58.708;50.190;2022-08-19T09:36:35;101921.16;;;25.76;14.83
54122;BME280;40029;58.708;50.190;2022-08-19T09:39:09;101927.59;;;25.86;14.89
54122;BME280;40029;58.708;50.190;2022-08-19T09:41:40;101920.91;;;25.93;14.83
54122;BME280;40029;58.708;50.190;2022-08-19T09:44:11;101916.72;;;25.89;14.55
54122;BME280;40029;58.708;50.190;2022-08-19T09:46:43;101921.44;;;25.98;14.58
54122;BME280;40029;58.708;50.190;2022-08-19T09:49:16;101920.78;;;26.07;14.59
54122;BME280;40029;58.708;50.190;2022-08-19T09:51:52;101918.44;;;26.15;13.90
54122;BME280;40029;58.708;50.190;2022-08-19T09:54:26;101895.81;;;25.96;14.58
54122;BME280;40029;58.708;50.190;2022-08-19T09:56:59;101909.91;;;26.23;14.42
54122;BME280;40029;58.708;50.190;2022-08-19T09:59:33;101916.94;;;26.37;14.34
54122;BME280;40029;58.708;50.190;2022-08-19T10:02:04;101909.56;;;26.40;14.41
54122;BME280;40029;58.708;50.190;2022-08-19T10:04:36;101905.53;;;26.48;14.47
54122;BME280;40029;58.708;50.190;2022-08-19T10:07:25;101904.22;;;26.53;13.93
54122;BME280;40029;58.708;50.190;2022-08-19T10:09:56;101907.22;;;26.49;14.06
54122;BME280;40029;58.708;50.190;2022-08-19T10:12:28;101900.91;;;26.50;13.60
54122;BME280;40029;58.708;50.190;2022-08-19T10:14:59;101891.94;;;26.51;14.01
54122;BME280;40029;58.708;50.190;2022-08-19T10:17:30;101906.34;;;26.61;14.05
54122;BME280;40029;58.708;50.190;2022-08-19T10:20:06;101897.03;;;26.41;14.04
54122;BME280;40029;58.708;50.190;2022-08-19T10:22:37;101893.22;;;26.45;14.21
54122;BME280;40029;58.708;50.190;2022-08-19T10:25:08;101896.22;;;26.53;13.67
54122;BME280;40029;58.708;50.190;2022-08-19T10:27:40;101894.47;;;26.65;13.84
54122;BME280;40029;58.708;50.190;2022-08-19T10:30:12;101885.94;;;26.60;13.30
54122;BME280;40029;58.708;50.190;2022-08-19T10:32:43;101877.97;;;26.71;13.45
54122;BME280;40029;58.708;50.190;2022-08-19T10:35:16;101874.97;;;26.76;13.56
54122;BME280;40029;58.708;50.190;2022-08-19T10:37:47;101868.97;;;26.85;13.93
54122;BME280;40029;58.708;50.190;2022-08-19T10:40:18;101870.41;;;27.02;13.20
54122;BME280;40029;58.708;50.190;2022-08-19T10:42:49;101868.44;;;27.04;13.30
54122;BME280;40029;58.708;50.190;2022-08-19T10:45:21;101866.22;;;27.10;13.22
54122;BME280;40029;58.708;50.190;2022-08-19T10:47:53;101873.44;;;27.21;13.40
54122;BME280;40029;58.708;50.190;2022-08-19T10:50:24;101875.66;;;27.27;13.48
54122;BME280;40029;58.708;50.190;2022-08-19T10:53:14;101877.72;;;27.24;13.17
54122;BME280;40029;58.708;50.190;2022-08-19T10:55:45;101870.97;;;26.94;12.99
54122;BME280;40029;58.708;50.190;2022-08-19T10:58:34;101856.75;;;26.94;13.34
54122;BME280;40029;58.708;50.190;2022-08-19T11:01:05;101865.25;;;27.11;13.45
54122;BME280;40029;58.708;50.190;2022-08-19T11:03:36;101862.00;;;27.19;12.82
54122;BME280;40029;58.708;50.190;2022-08-19T11:06:34;101869.09;;;27.07;13.17
54122;BME280;40029;58.708;50.190;2022-08-19T11:09:05;101869.94;;;27.08;13.07
54122;BME280;40029;58.708;50.190;2022-08-19T11:11:37;101869.84;;;27.09;13.12
54122;BME280;40029;58.708;50.190;2022-08-19T11:14:15;101867.63;;;27.27;12.89
54122;BME280;40029;58.708;50.190;2022-08-19T11:16:48;101860.03;;;27.21;13.29
54122;BME280;40029;58.708;50.190;2022-08-19T11:19:19;101865.47;;;27.44;13.08
54122;BME280;40029;58.708;50.190;2022-08-19T11:21:52;101863.47;;;27.58;12.84
54122;BME280;40029;58.708;50.190;2022-08-19T11:24:25;101859.81;;;27.59;12.46
54122;BME280;40029;58.708;50.190;2022-08-19T11:27:08;101864.34;;;27.70;13.01
54122;BME280;40029;58.708;50.190;2022-08-19T11:29:42;101863.59;;;27.68;13.42
54122;BME280;40029;58.708;50.190;2022-08-19T11:32:13;101853.13;;;27.65;12.91
54122;BME280;40029;58.708;50.190;2022-08-19T11:34:44;101856.00;;;27.86;12.58
54122;BME280;40029;58.708;50.190;2022-08-19T11:37:15;101845.31;;;27.97;12.79
54122;BME280;40029;58.708;50.190;2022-08-19T11:39:46;101856.38;;;28.15;12.12
54122;BME280;40029;58.708;50.190;2022-08-19T11:42:17;101858.63;;;28.44;11.89
54122;BME280;40029;58.708;50.190;2022-08-19T11:45:07;101858.94;;;28.61;12.27
54122;BME280;40029;58.708;50.190;2022-08-19T11:47:38;101853.53;;;28.84;11.86
54122;BME280;40029;58.708;50.190;2022-08-19T11:50:09;101858.56;;;29.21;11.33
54122;BME280;40029;58.708;50.190;2022-08-19T11:52:40;101854.03;;;29.74;10.99
54122;BME280;40029;58.708;50.190;2022-08-19T11:55:13;101847.75;;;30.46;10.33
54122;BME280;40029;58.708;50.190;2022-08-19T11:57:44;101846.84;;;30.96;9.24
54122;BME280;40029;58.708;50.190;2022-08-19T12:00:15;101851.97;;;31.47;9.26
54122;BME280;40029;58.708;50.190;2022-08-19T12:02:46;101845.47;;;32.06;9.36
54122;BME280;40029;58.708;50.190;2022-08-19T12:05:17;101848.56;;;32.67;8.79
54122;BME280;40029;58.708;50.190;2022-08-19T12:07:48;101844.72;;;32.97;8.04
54122;BME280;40029;58.708;50.190;2022-08-19T12:10:20;101831.47;;;33.29;8.40
54122;BME280;40029;58.708;50.190;2022-08-19T12:12:51;101839.75;;;33.72;8.28
54122;BME280;40029;58.708;50.190;2022-08-19T12:15:22;101832.09;;;33.93;7.51
54122;BME280;40029;58.708;50.190;2022-08-19T12:17:53;101836.44;;;34.04;6.54
54122;BME280;40029;58.708;50.190;2022-08-19T12:20:27;101834.13;;;34.17;6.60
54122;BME280;40029;58.708;50.190;2022-08-19T12:22:57;101827.91;;;34.25;6.17
54122;BME280;40029;58.708;50.190;2022-08-19T12:25:28;101833.28;;;34.59;5.27
54122;BME280;40029;58.708;50.190;2022-08-19T12:28:00;101832.56;;;34.49;6.92
54122;BME280;40029;58.708;50.190;2022-08-19T12:30:31;101831.09;;;34.63;6.00
54122;BME280;40029;58.708;50.190;2022-08-19T12:33:02;101826.16;;;34.50;5.56
54122;BME280;40029;58.708;50.190;2022-08-19T12:35:33;101829.34;;;34.53;5.13
54122;BME280;40029;58.708;50.190;2022-08-19T12:38:04;101829.72;;;34.59;5.24
54122;BME280;40029;58.708;50.190;2022-08-19T12:40:37;101828.91;;;34.82;5.49
54122;BME280;40029;58.708;50.190;2022-08-19T12:43:09;101824.69;;;34.80;5.49
54122;BME280;40029;58.708;50.190;2022-08-19T12:45:42;101821.81;;;34.90;5.51
54122;BME280;40029;58.708;50.190;2022-08-19T12:48:14;101816.44;;;34.98;5.15
54122;BME280;40029;58.708;50.190;2022-08-19T12:50:45;101810.69;;;35.01;4.38
54122;BME280;40029;58.708;50.190;2022-08-19T12:53:17;101816.25;;;35.08;4.06
54122;BME280;40029;58.708;50.190;2022-08-19T12:55:55;101808.44;;;34.88;4.75
54122;BME280;40029;58.708;50.190;2022-08-19T12:58:27;101802.50;;;34.68;4.17
54122;BME280;40029;58.708;50.190;2022-08-19T13:00:59;101803.00;;;34.64;4.60
54122;BME280;40029;58.708;50.190;2022-08-19T13:03:30;101800.34;;;34.29;4.26
54122;BME280;40029;58.708;50.190;2022-08-19T13:06:01;101800.91;;;34.49;3.72
54122;BME280;40029;58.708;50.190;2022-08-19T13:08:32;101797.75;;;34.78;3.66
54122;BME280;40029;58.708;50.190;2022-08-19T13:11:22;101792.41;;;34.44;3.88
54122;BME280;40029;58.708;50.190;2022-08-19T13:13:56;101797.38;;;34.06;4.26
54122;BME280;40029;58.708;50.190;2022-08-19T13:16:27;101794.38;;;34.18;4.58
54122;BME280;40029;58.708;50.190;2022-08-19T13:18:58;101794.19;;;34.19;4.95
54122;BME280;40029;58.708;50.190;2022-08-19T13:21:29;101787.13;;;34.26;5.08
54122;BME280;40029;58.708;50.190;2022-08-19T13:24:01;101778.34;;;34.24;4.97
54122;BME280;40029;58.708;50.190;2022-08-19T13:26:32;101782.88;;;34.24;4.71